createdAt,value
2022-08-04T00:02:35.292Z,4.72
2022-08-04T00:05:05.321Z,4.00
2022-08-04T00:07:50.865Z,4.28
2022-08-04T00:10:18.147Z,4.00
2022-08-04T00:12:50.099Z,4.50
2022-08-04T00:15:17.221Z,4.65
2022-08-04T00:17:50.962Z,4.00
2022-08-04T00:20:18.680Z,4.05
2022-08-04T00:22:45.719Z,3.75
2022-08-04T00:25:12.438Z,4.47
2022-08-04T00:27:38.998Z,4.72
2022-08-04T00:30:06.059Z,4.50
2022-08-04T00:32:34.336Z,4.35
2022-08-04T00:35:01.279Z,4.57
2022-08-04T00:37:27.802Z,4.38
2022-08-04T00:39:54.772Z,4.55
2022-08-04T00:42:49.249Z,4.93
2022-08-04T00:45:35.722Z,4.32
2022-08-04T00:48:19.769Z,4.50
2022-08-04T00:50:58.779Z,4.68
2022-08-04T00:53:37.331Z,4.15
2022-08-04T00:56:05.489Z,4.38
2022-08-04T00:58:42.301Z,4.30
2022-08-04T01:01:14.248Z,4.22
2022-08-04T01:03:43.654Z,4.15
2022-08-04T01:06:17.298Z,4.45
2022-08-04T01:08:58.231Z,4.53
2022-08-04T01:11:29.280Z,4.20
2022-08-04T01:16:25.188Z,4.10
2022-08-04T01:19:00.314Z,4.63
2022-08-04T01:21:29.780Z,4.65
2022-08-04T01:24:15.036Z,4.45
2022-08-04T01:27:00.738Z,4.45
2022-08-04T01:29:42.288Z,4.68
2022-08-04T01:32:32.980Z,4.70
2022-08-04T01:35:04.023Z,4.88
2022-08-04T01:37:41.946Z,4.53
2022-08-04T01:40:08.958Z,5.03
2022-08-04T01:42:36.219Z,4.60
2022-08-04T01:45:04.474Z,4.40
2022-08-04T01:47:31.187Z,4.68
2022-08-04T01:50:05.997Z,4.57
2022-08-04T01:52:34.535Z,5.07
2022-08-04T01:55:02.855Z,4.75
2022-08-04T01:57:37.111Z,4.70
2022-08-04T02:00:06.528Z,4.78
2022-08-04T02:02:33.558Z,4.70
2022-08-04T02:05:00.016Z,4.65
2022-08-04T02:07:32.418Z,4.75
2022-08-04T02:10:11.114Z,5.03
2022-08-04T02:12:40.270Z,5.30
2022-08-04T02:15:08.419Z,4.80
2022-08-04T02:17:40.884Z,4.53
2022-08-04T02:20:15.216Z,5.00
2022-08-04T02:22:50.219Z,4.70
2022-08-04T02:25:21.224Z,4.90
2022-08-04T02:30:30.794Z,5.05
2022-08-04T02:32:59.677Z,5.40
2022-08-04T02:35:27.795Z,5.47
2022-08-04T02:38:06.166Z,5.53
2022-08-04T02:40:32.793Z,5.85
2022-08-04T02:43:03.853Z,5.07
2022-08-04T02:45:31.917Z,5.53
2022-08-04T02:48:25.241Z,4.95
2022-08-04T02:50:46.917Z,5.20
2022-08-04T02:53:15.397Z,5.60
2022-08-04T02:55:50.505Z,5.40
2022-08-04T02:58:20.145Z,5.60
2022-08-04T03:00:48.207Z,5.18
2022-08-04T03:03:33.405Z,4.88
2022-08-04T03:06:24.635Z,6.30
2022-08-04T03:09:18.392Z,5.70
2022-08-04T03:12:03.422Z,5.63
2022-08-04T03:14:46.985Z,6.03
2022-08-04T03:17:27.425Z,5.47
2022-08-04T03:20:12.381Z,5.93
2022-08-04T03:23:12.419Z,5.45
2022-08-04T03:25:54.461Z,5.45
2022-08-04T03:28:37.612Z,5.38
2022-08-04T03:31:22.826Z,5.93
2022-08-04T03:33:49.191Z,6.07
2022-08-04T03:36:15.571Z,5.78
2022-08-04T03:38:45.063Z,5.53
2022-08-04T03:41:57.459Z,5.73
2022-08-04T03:44:36.610Z,6.43
2022-08-04T03:47:20.789Z,5.95
2022-08-04T03:49:50.322Z,6.03
2022-08-04T03:52:47.404Z,6.25
2022-08-04T03:55:25.763Z,6.22
2022-08-04T03:57:55.204Z,6.00
2022-08-04T04:00:23.667Z,5.55
2022-08-04T04:03:01.515Z,6.00
2022-08-04T04:05:59.895Z,6.60
2022-08-04T04:08:40.342Z,6.40
2022-08-04T04:11:18.546Z,6.32
2022-08-04T04:13:57.247Z,6.35
2022-08-04T04:16:26.694Z,6.13
2022-08-04T04:19:12.177Z,5.97
2022-08-04T04:21:47.883Z,5.47
2022-08-04T04:24:33.964Z,6.28
2022-08-04T04:27:18.228Z,6.47
2022-08-04T04:30:00.400Z,8.05
2022-08-04T04:32:35.644Z,8.93
2022-08-04T04:35:19.473Z,8.48
2022-08-04T04:37:56.594Z,7.18
2022-08-04T04:40:44.189Z,7.45
2022-08-04T04:43:52.163Z,7.38
2022-08-04T04:46:15.216Z,6.82
2022-08-04T04:48:54.608Z,6.13
2022-08-04T04:51:29.174Z,6.13
2022-08-04T04:54:00.481Z,5.57
2022-08-04T04:56:38.570Z,6.13
2022-08-04T04:59:08.977Z,6.00
2022-08-04T05:01:54.127Z,5.63
2022-08-04T05:04:33.513Z,5.93
2022-08-04T05:07:18.891Z,5.90
2022-08-04T05:09:58.320Z,6.25
2022-08-04T05:14:37.709Z,6.20
2022-08-04T05:15:37.532Z,5.47
2022-08-04T05:18:06.453Z,5.78
2022-08-04T05:20:40.771Z,5.75
2022-08-04T05:23:07.088Z,5.90
2022-08-04T05:25:35.508Z,5.60
2022-08-04T05:28:04.998Z,5.10
2022-08-04T05:30:35.045Z,5.45
2022-08-04T05:33:07.150Z,5.30
2022-08-04T05:35:55.806Z,5.20
2022-08-04T05:38:23.640Z,5.30
2022-08-04T05:40:50.990Z,5.03
2022-08-04T05:43:18.155Z,4.95
2022-08-04T05:45:48.301Z,5.03
2022-08-04T05:48:14.872Z,5.13
2022-08-04T05:50:41.399Z,4.80
2022-08-04T05:53:08.095Z,5.43
2022-08-04T05:55:57.024Z,4.97
2022-08-04T05:58:21.531Z,5.78
2022-08-04T06:00:51.514Z,5.28
2022-08-04T06:05:46.041Z,4.97
2022-08-04T06:08:13.899Z,5.00
2022-08-04T06:10:41.291Z,5.15
2022-08-04T06:13:10.282Z,4.93
2022-08-04T06:15:57.618Z,4.90
2022-08-04T06:19:57.630Z,4.45
2022-08-04T06:21:16.381Z,4.85
2022-08-04T06:23:53.159Z,4.65
2022-08-04T06:26:28.571Z,4.82
2022-08-04T06:28:56.270Z,4.93
2022-08-04T06:32:31.311Z,4.60
2022-08-04T06:34:29.934Z,4.50
2022-08-04T06:36:57.033Z,4.95
2022-08-04T06:39:25.058Z,3.85
2022-08-04T06:42:17.436Z,3.95
2022-08-04T06:44:42.894Z,4.80
2022-08-04T06:47:10.313Z,4.00
2022-08-04T06:51:23.028Z,3.60
2022-08-04T06:52:28.194Z,3.75
2022-08-04T06:54:55.667Z,3.55
2022-08-04T06:57:23.446Z,3.50
2022-08-04T06:59:51.846Z,3.78
2022-08-04T07:02:20.795Z,3.25
2022-08-04T07:04:48.286Z,3.03
2022-08-04T07:07:16.093Z,3.28
2022-08-04T07:09:42.688Z,2.80
2022-08-04T07:12:09.342Z,3.25
2022-08-04T07:14:36.468Z,2.88
2022-08-04T07:17:04.610Z,2.72
2022-08-04T07:19:32.250Z,3.17
2022-08-04T07:22:24.565Z,3.40
2022-08-04T07:24:48.516Z,2.97
2022-08-04T07:27:17.252Z,2.88
2022-08-04T07:30:05.594Z,2.80
2022-08-04T07:32:32.067Z,2.63
2022-08-04T07:34:58.859Z,2.70
2022-08-04T07:37:38.862Z,2.60
2022-08-04T07:40:06.251Z,2.63
2022-08-04T07:42:32.894Z,2.35
2022-08-04T07:44:59.501Z,2.40
2022-08-04T07:47:27.555Z,2.80
2022-08-04T07:49:57.734Z,2.30
2022-08-04T07:52:25.272Z,2.83
2022-08-04T07:54:52.129Z,2.40
2022-08-04T07:57:39.661Z,2.60
2022-08-04T08:00:05.941Z,2.50
2022-08-04T08:02:38.183Z,2.65
2022-08-04T08:05:04.831Z,2.58
2022-08-04T08:07:31.202Z,2.15
2022-08-04T08:09:58.725Z,2.53
2022-08-04T08:12:38.400Z,2.60
2022-08-04T08:15:15.867Z,2.20
2022-08-04T08:17:58.218Z,2.60
2022-08-04T08:20:30.072Z,2.20
2022-08-04T08:22:57.442Z,2.72
2022-08-04T08:25:24.305Z,2.25
2022-08-04T08:27:56.458Z,2.30
2022-08-04T08:30:23.912Z,2.58
2022-08-04T08:32:50.520Z,2.20
2022-08-04T08:35:17.481Z,2.50
2022-08-04T08:37:56.334Z,2.97
2022-08-04T08:40:41.581Z,2.30
2022-08-04T08:44:05.121Z,2.15
2022-08-04T08:46:33.137Z,2.63
2022-08-04T08:49:11.915Z,2.00
2022-08-04T08:51:58.249Z,2.20
2022-08-04T08:54:30.726Z,2.25
2022-08-04T08:57:20.242Z,2.13
2022-08-04T08:59:53.488Z,2.40
2022-08-04T09:02:22.809Z,2.10
2022-08-04T09:05:02.727Z,2.33
2022-08-04T09:07:32.150Z,2.35
2022-08-04T09:10:13.634Z,2.20
2022-08-04T09:12:42.985Z,2.30
2022-08-04T09:15:24.300Z,2.33
2022-08-04T09:17:57.317Z,1.90
2022-08-04T09:20:43.028Z,2.30
2022-08-04T09:23:20.675Z,2.00
2022-08-04T09:25:49.910Z,2.22
2022-08-04T09:28:37.265Z,1.83
2022-08-04T09:31:11.317Z,2.47
2022-08-04T09:33:44.957Z,1.90
2022-08-04T09:36:30.957Z,1.90
2022-08-04T09:39:03.861Z,2.17
2022-08-04T09:41:49.233Z,1.80
2022-08-04T09:44:48.912Z,2.13
2022-08-04T09:47:22.508Z,2.00
2022-08-04T09:49:58.242Z,1.77
2022-08-04T09:52:44.076Z,1.70
2022-08-04T09:55:23.090Z,1.88
2022-08-04T09:58:01.789Z,1.95
2022-08-04T10:00:41.298Z,2.05
2022-08-04T10:03:11.137Z,1.80
2022-08-04T10:05:48.389Z,1.73
2022-08-04T10:08:33.733Z,1.70
2022-08-04T10:11:07.756Z,2.13
2022-08-04T10:17:23.194Z,1.88
2022-08-04T10:20:01.678Z,1.90
2022-08-04T10:22:40.488Z,1.60
2022-08-04T10:26:03.457Z,1.83
2022-08-04T10:28:11.977Z,2.30
2022-08-04T10:30:40.537Z,1.50
2022-08-04T10:33:21.133Z,2.00
2022-08-04T10:35:52.011Z,2.08
2022-08-04T10:38:27.105Z,1.98
2022-08-04T10:41:18.408Z,2.00
2022-08-04T10:43:48.762Z,2.17
2022-08-04T10:46:17.268Z,1.95
2022-08-04T10:48:45.729Z,2.03
2022-08-04T10:51:18.131Z,2.10
2022-08-04T10:53:45.486Z,2.08
2022-08-04T10:56:22.570Z,1.85
2022-08-04T10:58:58.494Z,1.80
2022-08-04T11:01:59.723Z,2.05
2022-08-04T11:04:27.303Z,2.42
2022-08-04T11:06:55.207Z,2.10
2022-08-04T11:09:22.204Z,2.30
2022-08-04T11:11:56.920Z,1.92
2022-08-04T11:16:57.612Z,1.98
2022-08-04T11:19:42.834Z,1.98
2022-08-04T11:22:13.877Z,1.80
2022-08-04T11:24:52.454Z,1.90
2022-08-04T11:27:25.154Z,1.70
2022-08-04T11:30:00.865Z,1.90
2022-08-04T11:32:32.042Z,2.20
2022-08-04T11:35:01.897Z,1.75
2022-08-04T11:37:34.501Z,1.85
2022-08-04T11:40:04.031Z,1.83
2022-08-04T11:42:32.069Z,1.58
2022-08-04T11:45:06.880Z,1.73
2022-08-04T11:47:33.276Z,1.80
2022-08-04T11:50:09.715Z,1.80
2022-08-04T11:52:38.632Z,1.90
2022-08-04T11:55:07.135Z,1.65
2022-08-04T11:57:35.653Z,1.80
2022-08-04T12:00:07.422Z,2.08
2022-08-04T12:03:04.862Z,1.52
2022-08-04T12:05:36.518Z,1.35
2022-08-04T12:08:07.122Z,1.42
2022-08-04T12:10:42.134Z,1.48
2022-08-04T12:13:11.813Z,1.40
2022-08-04T12:15:47.897Z,1.50
2022-08-04T12:18:19.092Z,1.40
2022-08-04T12:20:49.442Z,1.70
2022-08-04T12:23:22.816Z,1.48
2022-08-04T12:25:50.558Z,1.52
2022-08-04T12:28:41.352Z,1.80
2022-08-04T12:31:20.671Z,1.70
2022-08-04T12:34:06.743Z,1.38
2022-08-04T12:36:37.184Z,1.17
2022-08-04T12:39:16.405Z,1.20
2022-08-04T12:41:47.672Z,1.20
2022-08-04T12:44:37.979Z,1.45
2022-08-04T12:47:26.774Z,1.70
2022-08-04T12:49:56.346Z,1.60
2022-08-04T12:52:39.731Z,1.48
2022-08-04T12:55:13.642Z,1.45
2022-08-04T12:57:41.091Z,1.27
2022-08-04T13:00:08.117Z,1.67
2022-08-04T13:02:38.515Z,1.65
2022-08-04T13:05:05.990Z,1.20
2022-08-04T13:07:37.047Z,1.70
2022-08-04T13:10:12.301Z,1.67
2022-08-04T13:12:39.464Z,1.60
2022-08-04T13:15:18.109Z,1.50
2022-08-04T13:17:52.927Z,1.58
2022-08-04T13:20:27.683Z,1.75
2022-08-04T13:23:03.876Z,1.40
2022-08-04T13:26:43.348Z,1.40
2022-08-04T13:28:24.861Z,1.58
2022-08-04T13:30:54.341Z,1.70
2022-08-04T13:33:21.098Z,1.27
2022-08-04T13:35:55.363Z,1.10
2022-08-04T13:38:24.357Z,1.40
2022-08-04T13:40:52.079Z,1.30
2022-08-04T13:44:15.821Z,1.20
2022-08-04T13:46:28.325Z,1.10
2022-08-04T13:49:26.001Z,1.20
2022-08-04T13:51:57.663Z,1.08
2022-08-04T13:54:26.403Z,1.30
2022-08-04T13:56:55.460Z,1.50
2022-08-04T13:59:25.228Z,1.08
2022-08-04T14:04:20.549Z,1.33
2022-08-04T14:06:49.688Z,0.80
2022-08-04T14:09:18.525Z,1.20
2022-08-04T14:12:09.822Z,1.10
2022-08-04T14:14:37.265Z,0.93
2022-08-04T14:21:29.368Z,1.00
2022-08-04T14:23:56.857Z,0.90
2022-08-04T14:26:31.575Z,1.15
2022-08-04T14:29:27.629Z,1.00
2022-08-04T14:32:03.260Z,1.20
2022-08-04T14:34:33.538Z,1.30
2022-08-04T14:37:16.598Z,1.13
2022-08-04T14:40:07.594Z,1.40
2022-08-04T14:42:42.317Z,1.30
2022-08-04T14:45:08.962Z,1.35
2022-08-04T14:47:39.554Z,1.23
2022-08-04T14:50:06.498Z,1.23
2022-08-04T14:52:36.173Z,1.20
2022-08-04T14:55:16.094Z,1.13
2022-08-04T15:00:30.070Z,1.13
2022-08-04T15:03:00.183Z,1.23
2022-08-04T15:06:01.732Z,1.17
2022-08-04T15:08:16.607Z,1.67
2022-08-04T15:10:44.340Z,1.27
2022-08-04T15:13:12.559Z,1.20
2022-08-04T15:15:39.454Z,1.20
2022-08-04T15:18:09.578Z,1.30
2022-08-04T15:23:06.206Z,1.33
2022-08-04T15:25:45.868Z,1.20
2022-08-04T15:28:15.002Z,1.38
2022-08-04T15:30:42.681Z,1.33
2022-08-04T15:33:09.223Z,1.25
2022-08-04T15:35:48.909Z,1.40
2022-08-04T15:38:23.710Z,1.35
2022-08-04T15:40:57.395Z,1.33
2022-08-04T15:43:39.307Z,1.25
2022-08-04T15:46:44.004Z,1.40
2022-08-04T15:48:52.186Z,1.42
2022-08-04T15:51:32.100Z,1.20
2022-08-04T15:54:02.658Z,1.35
2022-08-04T15:56:30.715Z,1.20
2022-08-04T15:58:57.338Z,1.20
2022-08-04T16:01:24.386Z,1.40
2022-08-04T16:03:59.573Z,1.20
2022-08-04T16:06:29.733Z,1.15
2022-08-04T16:09:00.889Z,1.10
2022-08-04T16:11:32.481Z,1.10
2022-08-04T16:13:59.549Z,1.35
2022-08-04T16:16:42.238Z,1.20
2022-08-04T16:19:10.070Z,1.30
2022-08-04T16:21:46.880Z,1.35
2022-08-04T16:24:17.175Z,1.20
2022-08-04T16:29:27.775Z,1.20
2022-08-04T16:32:06.791Z,1.95
2022-08-04T16:34:54.304Z,1.50
2022-08-04T16:37:42.950Z,1.38
2022-08-04T16:40:34.760Z,1.60
2022-08-04T16:43:04.249Z,1.40
2022-08-04T16:45:41.202Z,1.40
2022-08-04T16:48:08.040Z,1.38
2022-08-04T16:50:44.578Z,1.20
2022-08-04T16:53:53.926Z,1.15
2022-08-04T16:55:59.178Z,1.35
2022-08-04T16:58:27.201Z,1.40
2022-08-04T17:01:06.115Z,1.83
2022-08-04T17:03:32.667Z,1.38
2022-08-04T17:06:07.026Z,1.60
2022-08-04T17:08:35.215Z,1.30
2022-08-04T17:11:01.816Z,1.02
2022-08-04T17:14:04.602Z,1.42
2022-08-04T17:16:17.817Z,1.70
2022-08-04T17:18:48.921Z,1.45
2022-08-04T17:21:19.967Z,1.08
2022-08-04T17:24:12.599Z,1.15
2022-08-04T17:26:40.219Z,1.30
2022-08-04T17:29:08.107Z,1.20
2022-08-04T17:31:35.767Z,1.30
2022-08-04T17:34:11.067Z,1.05
2022-08-04T17:36:42.342Z,1.30
2022-08-04T17:39:17.015Z,1.08
2022-08-04T17:41:48.640Z,1.50
2022-08-04T17:44:15.218Z,1.13
2022-08-04T17:46:43.305Z,1.20
2022-08-04T17:49:11.827Z,1.30
2022-08-04T17:52:04.247Z,1.20
2022-08-04T17:54:37.437Z,1.00
2022-08-04T17:57:23.631Z,1.45
2022-08-04T17:59:56.667Z,1.48
2022-08-04T18:02:33.048Z,1.33
2022-08-04T18:05:06.739Z,1.73
2022-08-04T18:08:38.462Z,1.17
2022-08-04T18:10:52.183Z,1.30
2022-08-04T18:13:22.348Z,1.50
2022-08-04T18:15:51.047Z,1.60
2022-08-04T18:18:21.274Z,1.70
2022-08-04T18:20:50.121Z,1.60
2022-08-04T18:23:16.985Z,1.50
2022-08-04T18:25:50.913Z,1.55
2022-08-04T18:28:26.374Z,1.40
2022-08-04T18:30:55.175Z,1.40
2022-08-04T18:33:39.776Z,1.45
2022-08-04T18:36:34.656Z,1.60
2022-08-04T18:38:58.304Z,1.65
2022-08-04T18:44:00.716Z,1.33
2022-08-04T18:46:29.821Z,1.23
2022-08-04T18:48:56.531Z,1.45
2022-08-04T18:51:25.153Z,1.50
2022-08-04T18:53:58.943Z,1.73
2022-08-04T18:56:32.426Z,1.50
2022-08-04T18:59:00.990Z,1.75
2022-08-04T19:01:29.529Z,2.20
2022-08-04T19:03:57.865Z,1.48
2022-08-04T19:06:25.978Z,1.77
2022-08-04T19:08:56.508Z,1.88
2022-08-04T19:11:54.057Z,1.60
2022-08-04T19:14:13.161Z,1.85
2022-08-04T19:19:30.756Z,1.50
2022-08-04T19:22:13.353Z,1.77
2022-08-04T19:25:03.023Z,2.00
2022-08-04T19:27:38.538Z,1.70
2022-08-04T19:30:06.789Z,1.95
2022-08-04T19:32:38.122Z,1.83
2022-08-04T19:35:07.564Z,1.95
2022-08-04T19:37:57.435Z,2.10
2022-08-04T19:40:32.596Z,2.05
2022-08-04T19:43:12.066Z,2.28
2022-08-04T19:45:41.847Z,2.55
2022-08-04T19:48:18.655Z,2.10
2022-08-04T19:50:48.898Z,2.17
2022-08-04T19:53:18.839Z,1.98
2022-08-04T19:55:49.805Z,1.70
2022-08-04T19:58:17.025Z,1.88
2022-08-04T20:00:51.138Z,1.55
2022-08-04T20:03:21.007Z,1.95
2022-08-04T20:05:53.732Z,2.70
2022-08-04T20:08:26.464Z,1.90
2022-08-04T20:10:55.057Z,2.17
2022-08-04T20:13:21.981Z,1.80
2022-08-04T20:18:55.403Z,1.95
2022-08-04T20:21:24.198Z,1.98
2022-08-04T20:24:40.204Z,1.95
2022-08-04T20:26:51.238Z,1.95
2022-08-04T20:29:36.969Z,2.00
2022-08-04T20:32:09.012Z,2.20
2022-08-04T20:34:36.328Z,1.98
2022-08-04T20:37:02.842Z,2.03
2022-08-04T20:39:31.370Z,1.70
2022-08-04T20:41:59.646Z,1.85
2022-08-04T20:44:29.134Z,2.08
2022-08-04T20:46:55.661Z,1.92
2022-08-04T20:49:35.212Z,2.03
2022-08-04T20:52:12.139Z,2.10
2022-08-04T20:57:48.451Z,2.08
2022-08-04T21:00:16.468Z,3.47
2022-08-04T21:02:44.456Z,6.80
2022-08-04T21:05:14.400Z,2.90
2022-08-04T21:07:43.799Z,2.42
2022-08-04T21:10:10.783Z,2.00
2022-08-04T21:12:37.690Z,2.00
2022-08-04T21:15:14.478Z,1.77
2022-08-04T21:17:58.649Z,2.13
2022-08-04T21:20:32.341Z,2.10
2022-08-04T21:23:02.004Z,2.10
2022-08-04T21:25:29.881Z,2.47
2022-08-04T21:27:58.955Z,2.50
2022-08-04T21:30:31.124Z,2.80
2022-08-04T21:33:04.467Z,2.25
2022-08-04T21:35:38.996Z,2.28
2022-08-04T21:38:17.093Z,2.47
2022-08-04T21:40:53.305Z,2.42
2022-08-04T21:43:20.203Z,2.60
2022-08-04T21:45:49.859Z,2.83
2022-08-04T21:48:16.963Z,2.75
2022-08-04T21:50:43.755Z,2.45
2022-08-04T21:53:16.852Z,2.90
2022-08-04T21:56:05.094Z,3.53
2022-08-04T21:58:33.208Z,2.70
2022-08-04T22:00:59.686Z,2.30
2022-08-04T22:03:52.681Z,2.33
2022-08-04T22:06:17.349Z,2.42
2022-08-04T22:08:44.460Z,2.45
2022-08-04T22:11:44.212Z,3.80
2022-08-04T22:14:16.190Z,2.55
2022-08-04T22:16:45.031Z,2.70
2022-08-04T22:19:11.774Z,2.80
2022-08-04T22:21:46.646Z,2.40
2022-08-04T22:24:14.159Z,2.83
2022-08-04T22:26:44.098Z,2.58
2022-08-04T22:29:14.410Z,2.90
2022-08-04T22:31:56.164Z,3.13
2022-08-04T22:34:24.291Z,3.25
2022-08-04T22:36:50.704Z,2.67
2022-08-04T22:39:17.536Z,2.70
2022-08-04T22:41:48.909Z,3.03
2022-08-04T22:44:32.445Z,2.60
2022-08-04T22:46:59.988Z,2.70
2022-08-04T22:49:31.199Z,2.58
2022-08-04T22:51:58.767Z,2.80
2022-08-04T22:54:26.020Z,3.15
2022-08-04T22:56:57.122Z,3.10
2022-08-04T22:59:24.130Z,3.10
2022-08-04T23:02:00.364Z,3.15
2022-08-04T23:04:28.791Z,3.40
2022-08-04T23:06:55.338Z,2.88
2022-08-04T23:09:26.839Z,2.80
2022-08-04T23:12:23.715Z,3.00
2022-08-04T23:14:49.573Z,3.08
2022-08-04T23:17:16.781Z,3.72
2022-08-04T23:19:55.480Z,3.03
2022-08-04T23:22:42.075Z,3.13
2022-08-04T23:25:15.836Z,3.20
2022-08-04T23:27:44.066Z,2.90
2022-08-04T23:30:19.556Z,3.08
2022-08-04T23:32:46.134Z,3.15
2022-08-04T23:35:12.496Z,3.08
2022-08-04T23:37:56.031Z,3.45
2022-08-04T23:40:32.371Z,3.20
2022-08-04T23:43:00.242Z,3.50
2022-08-04T23:46:04.557Z,3.20
2022-08-04T23:48:18.586Z,3.40
2022-08-04T23:50:47.154Z,3.22
2022-08-04T23:53:18.633Z,3.40
2022-08-04T23:55:48.953Z,3.85
2022-08-04T23:58:20.851Z,3.63
